Time;durP1;ratioP1;P1;durP2;ratioP2;P2;SDS_P1;SDS_P2;PMS_P1;PMS_P2;Temp;Humidity;BMP_temperature;BMP_pressure;BME280_temperature;BME280_humidity;BME280_pressure;Samples;Min_cycle;Max_cycle;Signal;HPM_P1;HPM_P2
2022/11/15 00:01:14;;;;;;;50.25;27.55;;;;;;;;;;4995544;28;92459;-77
2022/11/15 00:03:59;;;;;;;58.85;31.23;;;;;;;;;;4997974;28;92697;-77
2022/11/15 00:06:44;;;;;;;49.35;25.90;;;;;;;;;;4991876;28;94919;-77
2022/11/15 00:09:28;;;;;;;57.03;28.95;;;;;;;;;;4992913;28;92669;-77
2022/11/15 00:12:13;;;;;;;58.58;28.30;;;;;;;;;;4994086;28;92399;-78
2022/11/15 00:14:58;;;;;;;61.40;29.75;;;;;;;;;;4993182;28;93671;-76
2022/11/15 00:17:43;;;;;;;61.83;30.27;;;;;;;;;;4994387;28;93453;-78
2022/11/15 00:20:29;;;;;;;63.63;30.45;;;;;;;;;;4994098;28;92380;-77
2022/11/15 00:23:13;;;;;;;70.18;31.63;;;;;;;;;;4992632;28;92572;-77
2022/11/15 00:25:58;;;;;;;55.42;28.23;;;;;;;;;;4995710;28;92381;-78
2022/11/15 00:28:43;;;;;;;85.90;35.25;;;;;;;;;;4998075;28;92394;-77
2022/11/15 00:31:28;;;;;;;98.30;37.47;;;;;;;;;;4992734;28;93006;-77
2022/11/15 00:34:13;;;;;;;85.80;36.28;;;;;;;;;;4990733;28;94836;-77
2022/11/15 00:36:59;;;;;;;87.95;35.22;;;;;;;;;;4995142;28;94901;-78
2022/11/15 00:39:44;;;;;;;86.15;33.28;;;;;;;;;;4992574;28;92915;-77
2022/11/15 00:42:30;;;;;;;114.13;40.33;;;;;;;;;;4994190;28;92532;-77
2022/11/15 00:45:16;;;;;;;108.60;39.70;;;;;;;;;;4992443;28;92528;-77
2022/11/15 00:48:01;;;;;;;110.30;40.90;;;;;;;;;;4992214;28;92873;-77
2022/11/15 00:50:47;;;;;;;118.50;39.15;;;;;;;;;;4994254;28;92505;-77
2022/11/15 00:53:32;;;;;;;88.35;34.72;;;;;;;;;;4995771;28;92548;-77
2022/11/15 00:56:18;;;;;;;129.25;42.97;;;;;;;;;;4992714;28;92596;-78
2022/11/15 00:59:03;;;;;;;155.98;45.72;;;;;;;;;;4992954;28;93033;-77
2022/11/15 01:01:49;;;;;;;147.73;44.33;;;;;;;;;;5010925;28;94684;-76
2022/11/15 01:04:34;;;;;;;147.20;45.33;;;;;;;;;;5011267;28;92526;-76
2022/11/15 01:07:19;;;;;;;87.70;36.85;;;;;;;;;;5009415;28;92263;-78
2022/11/15 01:10:04;;;;;;;143.50;45.92;;;;;;;;;;4997235;28;92180;-77
2022/11/15 01:12:49;;;;;;;154.65;46.10;;;;;;;;;;5011381;28;92065;-78
2022/11/15 01:15:39;;;;;;;147.75;46.25;;;;;;;;;;5001497;28;92458;-78
2022/11/15 01:18:24;;;;;;;126.50;43.05;;;;;;;;;;4998405;28;92666;-77
2022/11/15 01:21:10;;;;;;;153.45;48.08;;;;;;;;;;4994818;28;92461;-77
2022/11/15 01:23:56;;;;;;;160.23;47.53;;;;;;;;;;4995867;28;92846;-77
2022/11/15 01:26:41;;;;;;;170.45;47.50;;;;;;;;;;4997351;28;92457;-77
2022/11/15 01:29:26;;;;;;;125.30;44.67;;;;;;;;;;4996122;28;95088;-77
2022/11/15 01:32:11;;;;;;;151.98;46.78;;;;;;;;;;4997007;28;92502;-77
2022/11/15 01:34:57;;;;;;;149.52;44.90;;;;;;;;;;4997455;28;92276;-77
2022/11/15 01:37:42;;;;;;;136.00;44.33;;;;;;;;;;4996440;28;92642;-77
2022/11/15 01:40:27;;;;;;;151.43;49.78;;;;;;;;;;4996056;28;92658;-77
2022/11/15 01:43:25;;;;;;;137.77;44.92;;;;;;;;;;4999194;28;92456;-77
2022/11/15 01:46:32;;;;;;;143.73;46.05;;;;;;;;;;4995332;28;92666;-77
2022/11/15 01:49:19;;;;;;;141.35;46.80;;;;;;;;;;4997333;28;92019;-78
2022/11/15 01:52:07;;;;;;;152.52;48.28;;;;;;;;;;4996937;28;92477;-77
2022/11/15 01:54:57;;;;;;;138.68;46.13;;;;;;;;;;4994999;28;92302;-77
2022/11/15 01:57:45;;;;;;;162.27;51.33;;;;;;;;;;4994434;28;95700;-77
2022/11/15 02:00:33;;;;;;;134.40;45.65;;;;;;;;;;4997615;28;94914;-76
2022/11/15 02:03:22;;;;;;;134.50;48.03;;;;;;;;;;4995672;28;92652;-76
2022/11/15 02:06:07;;;;;;;137.68;47.15;;;;;;;;;;4995785;28;92409;-77
2022/11/15 02:08:53;;;;;;;135.63;49.15;;;;;;;;;;5000373;28;92455;-76
2022/11/15 02:11:38;;;;;;;114.65;43.90;;;;;;;;;;4993737;28;92343;-77
2022/11/15 02:14:25;;;;;;;152.73;50.88;;;;;;;;;;4996299;28;92531;-77
2022/11/15 02:17:18;;;;;;;122.13;47.85;;;;;;;;;;4996111;28;92148;-76
2022/11/15 02:20:03;;;;;;;125.78;44.35;;;;;;;;;;4995088;28;92884;-76
2022/11/15 02:22:57;;;;;;;125.68;43.83;;;;;;;;;;4992305;28;92594;-77
2022/11/15 02:25:41;;;;;;;129.50;48.50;;;;;;;;;;4974966;28;95044;-77
2022/11/15 02:28:36;;;;;;;118.85;46.67;;;;;;;;;;4977158;28;92347;-76
2022/11/15 02:31:29;;;;;;;112.38;46.78;;;;;;;;;;4998734;28;92534;-77
2022/11/15 02:34:25;;;;;;;104.28;43.75;;;;;;;;;;4989354;28;92402;-77
2022/11/15 02:37:30;;;;;;;121.10;47.00;;;;;;;;;;4996228;28;92547;-77
2022/11/15 02:40:25;;;;;;;128.52;49.85;;;;;;;;;;4993494;28;92712;-77
2022/11/15 02:47:12;;;;;;;110.03;45.13;;;;;;;;;;4996352;28;92528;-77
2022/11/15 02:49:31;;;;;;;117.72;48.25;;;;;;;;;;4996776;28;93501;-77
2022/11/15 02:52:22;;;;;;;120.82;48.17;;;;;;;;;;4996505;28;92554;-77
2022/11/15 02:55:25;;;;;;;114.68;47.20;;;;;;;;;;4991821;28;94776;-76
2022/11/15 02:58:10;;;;;;;;;;;;;;;;;;4999903;28;92681;-76
2022/11/15 03:00:56;;;;;;;105.68;44.28;;;;;;;;;;4997587;28;92521;-76
2022/11/15 03:03:59;;;;;;;127.40;47.28;;;;;;;;;;4994752;28;92601;-76
2022/11/15 03:07:03;;;;;;;106.53;44.20;;;;;;;;;;4995947;28;92409;-76
2022/11/15 03:09:48;;;;;;;109.65;47.85;;;;;;;;;;4994919;28;93142;-77
2022/11/15 03:12:36;;;;;;;100.63;42.90;;;;;;;;;;4995240;28;92708;-76
2022/11/15 03:15:23;;;;;;;84.40;39.30;;;;;;;;;;4995731;28;92204;-76
2022/11/15 03:18:21;;;;;;;95.72;42.05;;;;;;;;;;4994691;28;92326;-76
2022/11/15 03:21:08;;;;;;;109.93;46.05;;;;;;;;;;4994362;28;92618;-77
2022/11/15 03:23:54;;;;;;;96.63;46.65;;;;;;;;;;4998366;28;94786;-77
2022/11/15 03:26:40;;;;;;;109.70;46.20;;;;;;;;;;4994612;28;92851;-77
2022/11/15 03:29:32;;;;;;;112.20;46.97;;;;;;;;;;4994954;28;92431;-76
2022/11/15 03:32:23;;;;;;;96.18;41.20;;;;;;;;;;4996061;28;92372;-76
2022/11/15 03:35:12;;;;;;;102.00;44.90;;;;;;;;;;4995015;28;92700;-76
2022/11/15 03:38:08;;;;;;;90.38;41.03;;;;;;;;;;4990283;28;92354;-77
2022/11/15 03:40:58;;;;;;;106.63;45.25;;;;;;;;;;4994392;28;92420;-77
2022/11/15 03:43:44;;;;;;;103.63;46.35;;;;;;;;;;4994201;28;92054;-76
2022/11/15 03:46:32;;;;;;;94.70;44.67;;;;;;;;;;4995056;28;92378;-76
2022/11/15 03:49:22;;;;;;;105.22;44.83;;;;;;;;;;4997417;28;92489;-77
2022/11/15 03:52:07;;;;;;;114.55;45.33;;;;;;;;;;4993165;28;94851;-77
2022/11/15 03:54:53;;;;;;;110.30;45.75;;;;;;;;;;4995413;28;94897;-77
2022/11/15 03:57:42;;;;;;;105.20;46.05;;;;;;;;;;4992251;28;92726;-77
2022/11/15 04:00:28;;;;;;;104.03;46.67;;;;;;;;;;4994317;28;92368;-76
2022/11/15 04:03:15;;;;;;;101.40;44.60;;;;;;;;;;4995810;28;92532;-77
2022/11/15 04:06:00;;;;;;;102.57;46.13;;;;;;;;;;4993934;28;92530;-77
2022/11/15 04:08:44;;;;;;;89.20;44.03;;;;;;;;;;4994797;28;92412;-77
2022/11/15 04:11:29;;;;;;;92.28;44.92;;;;;;;;;;4992422;28;93061;-77
2022/11/15 04:14:14;;;;;;;96.18;43.80;;;;;;;;;;4996508;28;92534;-76
2022/11/15 04:17:00;;;;;;;91.35;41.63;;;;;;;;;;4993201;28;94979;-75
2022/11/15 04:26:01;;;;;;;79.38;38.90;;;;;;;;;;4950814;28;93395;-76
2022/11/15 04:31:50;;;;;;;101.03;44.08;;;;;;;;;;4955100;28;92619;-76
2022/11/15 04:34:35;;;;;;;75.82;39.63;;;;;;;;;;4956219;28;92528;-76
2022/11/15 04:37:20;;;;;;;93.97;44.15;;;;;;;;;;4937720;28;92596;-76
2022/11/15 04:40:05;;;;;;;85.38;43.13;;;;;;;;;;4937762;28;91707;-76
2022/11/15 04:42:51;;;;;;;86.38;43.25;;;;;;;;;;4936480;28;92695;-77
2022/11/15 04:45:36;;;;;;;85.88;44.42;;;;;;;;;;4944935;28;92507;-77
2022/11/15 04:48:24;;;;;;;94.63;44.63;;;;;;;;;;4953100;28;94737;-77
2022/11/15 04:51:26;;;;;;;79.78;44.13;;;;;;;;;;4948984;28;92399;-77
2022/11/15 04:54:15;;;;;;;86.82;42.90;;;;;;;;;;4933299;28;92497;-77
2022/11/15 04:57:00;;;;;;;79.25;38.25;;;;;;;;;;4936926;28;93075;-76
2022/11/15 04:59:45;;;;;;;83.80;41.80;;;;;;;;;;4938877;28;92700;-77
2022/11/15 05:04:18;;;;;;;77.18;38.33;;;;;;;;;;4942866;28;92469;-76
2022/11/15 05:05:35;;;;;;;83.47;41.45;;;;;;;;;;4957773;28;92657;-77
2022/11/15 05:08:20;;;;;;;79.13;42.20;;;;;;;;;;4956194;28;92179;-77
2022/11/15 05:11:05;;;;;;;76.38;39.28;;;;;;;;;;4957826;28;92369;-77
2022/11/15 05:13:50;;;;;;;81.05;41.72;;;;;;;;;;4945380;28;92422;-76
2022/11/15 05:16:35;;;;;;;71.88;38.85;;;;;;;;;;4935333;28;94862;-77
2022/11/15 05:19:20;;;;;;;65.72;36.00;;;;;;;;;;4945927;28;94848;-77
2022/11/15 05:22:05;;;;;;;73.75;41.05;;;;;;;;;;4987543;28;93032;-76
2022/11/15 05:24:50;;;;;;;78.07;40.33;;;;;;;;;;4998679;28;92359;-76
2022/11/15 05:27:38;;;;;;;67.80;37.90;;;;;;;;;;4999025;28;92754;-77
2022/11/15 05:30:23;;;;;;;69.20;37.35;;;;;;;;;;4996705;28;92369;-77
2022/11/15 05:33:09;;;;;;;65.45;36.60;;;;;;;;;;4996167;28;92498;-77
2022/11/15 05:35:57;;;;;;;71.70;39.58;;;;;;;;;;4995809;28;92181;-76
2022/11/15 05:38:42;;;;;;;63.42;35.40;;;;;;;;;;4998439;28;92772;-76
2022/11/15 05:41:32;;;;;;;69.28;38.83;;;;;;;;;;4997212;28;92556;-76
2022/11/15 05:44:18;;;;;;;79.30;40.95;;;;;;;;;;4994167;28;95047;-77
2022/11/15 05:47:04;;;;;;;67.60;37.30;;;;;;;;;;4996573;28;92515;-76
2022/11/15 05:49:51;;;;;;;80.72;41.28;;;;;;;;;;4994348;28;92413;-77
2022/11/15 05:52:36;;;;;;;81.05;42.60;;;;;;;;;;4998583;28;92663;-76
2022/11/15 05:55:21;;;;;;;74.15;38.72;;;;;;;;;;4996703;28;92958;-76
2022/11/15 05:58:10;;;;;;;83.32;43.40;;;;;;;;;;4995029;28;92608;-76
2022/11/15 06:00:58;;;;;;;89.63;43.53;;;;;;;;;;4996053;28;92488;-76
2022/11/15 06:03:45;;;;;;;84.05;42.42;;;;;;;;;;4996954;28;92655;-76
2022/11/15 06:06:29;;;;;;;78.15;42.08;;;;;;;;;;4997221;28;92372;-76
2022/11/15 06:09:14;;;;;;;74.15;42.17;;;;;;;;;;4995184;28;92359;-76
2022/11/15 06:11:59;;;;;;;73.20;39.80;;;;;;;;;;4994793;28;95592;-76
2022/11/15 06:14:45;;;;;;;82.55;41.28;;;;;;;;;;4996907;28;92374;-76
2022/11/15 06:17:29;;;;;;;72.35;40.65;;;;;;;;;;4997739;28;93251;-76
2022/11/15 06:20:14;;;;;;;68.15;39.72;;;;;;;;;;4995849;28;92438;-76
2022/11/15 06:23:00;;;;;;;87.70;41.47;;;;;;;;;;4996863;28;92525;-76
2022/11/15 06:25:45;;;;;;;69.35;40.65;;;;;;;;;;4994428;28;92496;-76
2022/11/15 06:28:31;;;;;;;75.13;39.40;;;;;;;;;;4994269;28;92586;-76
2022/11/15 06:31:15;;;;;;;71.70;39.45;;;;;;;;;;4996904;28;91743;-76
2022/11/15 06:34:00;;;;;;;65.00;36.72;;;;;;;;;;4995816;28;92438;-76
2022/11/15 06:36:45;;;;;;;66.43;38.67;;;;;;;;;;4996209;28;92659;-76
2022/11/15 06:39:30;;;;;;;56.88;34.22;;;;;;;;;;4993359;28;95209;-76
2022/11/15 06:42:14;;;;;;;69.03;37.55;;;;;;;;;;4982577;28;94767;-76
2022/11/15 06:44:59;;;;;;;73.10;40.28;;;;;;;;;;4996644;28;92395;-76
2022/11/15 06:47:47;;;;;;;72.47;39.28;;;;;;;;;;4997040;28;92795;-75
2022/11/15 06:50:32;;;;;;;67.28;40.10;;;;;;;;;;4994831;28;92610;-75
2022/11/15 06:53:17;;;;;;;77.80;40.42;;;;;;;;;;4994413;28;92343;-75
2022/11/15 06:56:03;;;;;;;71.20;40.38;;;;;;;;;;4996511;28;92522;-76
2022/11/15 06:58:48;;;;;;;76.30;39.42;;;;;;;;;;4992845;28;93036;-76
2022/11/15 07:01:33;;;;;;;68.78;37.78;;;;;;;;;;4981704;28;93068;-75
2022/11/15 07:04:18;;;;;;;68.18;36.35;;;;;;;;;;4990052;28;92529;-75
2022/11/15 07:07:03;;;;;;;71.82;40.70;;;;;;;;;;4988425;28;96547;-75
2022/11/15 07:09:48;;;;;;;57.65;33.88;;;;;;;;;;4995860;28;93875;-75
2022/11/15 07:12:33;;;;;;;70.40;39.85;;;;;;;;;;4995247;28;92653;-76
2022/11/15 07:15:19;;;;;;;77.75;37.05;;;;;;;;;;4994457;28;92516;-76
2022/11/15 07:18:04;;;;;;;70.13;37.72;;;;;;;;;;4994167;28;92492;-76
2022/11/15 07:20:49;;;;;;;69.13;38.30;;;;;;;;;;4993509;28;92898;-76
2022/11/15 07:23:35;;;;;;;69.25;37.60;;;;;;;;;;4978107;28;92394;-76
2022/11/15 07:26:20;;;;;;;68.28;39.38;;;;;;;;;;4995615;28;92317;-76
2022/11/15 07:29:05;;;;;;;57.55;34.13;;;;;;;;;;4997328;28;92763;-76
2022/11/15 07:31:50;;;;;;;72.68;40.45;;;;;;;;;;4976887;28;92530;-76
2022/11/15 07:34:35;;;;;;;60.72;36.50;;;;;;;;;;4972225;28;94997;-76
2022/11/15 07:37:20;;;;;;;63.50;36.40;;;;;;;;;;4984797;28;92532;-76
2022/11/15 07:40:05;;;;;;;59.30;34.85;;;;;;;;;;4994230;28;92568;-76
2022/11/15 07:43:03;;;;;;;60.85;35.45;;;;;;;;;;4992604;28;92606;-77
2022/11/15 07:45:48;;;;;;;62.28;35.90;;;;;;;;;;4993998;28;92459;-76
2022/11/15 07:48:40;;;;;;;57.53;33.70;;;;;;;;;;4988720;28;92564;-77
2022/11/15 07:51:28;;;;;;;48.58;29.60;;;;;;;;;;4992757;28;92696;-78
2022/11/15 07:54:13;;;;;;;49.65;32.92;;;;;;;;;;4986320;28;91870;-76
2022/11/15 07:56:58;;;;;;;48.60;31.27;;;;;;;;;;4989778;28;92870;-78
2022/11/15 07:59:50;;;;;;;50.38;32.58;;;;;;;;;;4991103;28;94444;-77
2022/11/15 08:02:35;;;;;;;44.13;26.25;;;;;;;;;;4990841;28;94840;-77
2022/11/15 08:05:23;;;;;;;51.97;29.60;;;;;;;;;;4990105;28;94128;-77
2022/11/15 08:08:09;;;;;;;49.67;28.00;;;;;;;;;;4990557;28;92564;-77
2022/11/15 08:10:54;;;;;;;42.45;27.60;;;;;;;;;;4978966;28;92422;-77
2022/11/15 08:13:39;;;;;;;44.83;28.02;;;;;;;;;;4995152;28;92741;-78
2022/11/15 08:16:24;;;;;;;45.47;27.88;;;;;;;;;;4994856;28;92461;-80
2022/11/15 08:19:09;;;;;;;40.92;26.73;;;;;;;;;;4999316;28;92415;-77
2022/11/15 08:21:53;;;;;;;40.47;24.90;;;;;;;;;;4996168;28;91806;-76
2022/11/15 08:24:41;;;;;;;44.15;24.27;;;;;;;;;;4978571;28;92595;-78
2022/11/15 08:27:27;;;;;;;39.20;25.05;;;;;;;;;;4994769;28;92713;-77
2022/11/15 08:30:15;;;;;;;42.10;25.13;;;;;;;;;;4993839;28;94827;-77
2022/11/15 08:33:00;;;;;;;41.72;23.00;;;;;;;;;;4991952;28;94913;-77
2022/11/15 08:35:45;;;;;;;34.40;21.17;;;;;;;;;;4994283;28;92660;-77
2022/11/15 08:38:30;;;;;;;39.40;23.23;;;;;;;;;;4994711;28;93190;-77
2022/11/15 08:41:27;;;;;;;33.75;20.02;;;;;;;;;;4988867;28;92421;-76
2022/11/15 08:44:12;;;;;;;28.33;19.38;;;;;;;;;;4994635;28;92468;-77
2022/11/15 08:46:59;;;;;;;29.75;20.02;;;;;;;;;;4992888;28;92497;-77
2022/11/15 08:49:44;;;;;;;38.05;20.23;;;;;;;;;;4993468;28;91992;-79
2022/11/15 08:52:31;;;;;;;41.42;22.48;;;;;;;;;;4985942;28;92626;-77
2022/11/15 08:55:16;;;;;;;25.48;20.40;;;;;;;;;;4992813;28;92668;-77
2022/11/15 08:58:01;;;;;;;27.92;20.00;;;;;;;;;;4991110;28;94870;-79
2022/11/15 09:00:46;;;;;;;37.92;20.23;;;;;;;;;;4994132;28;92815;-77
2022/11/15 09:03:32;;;;;;;29.02;19.92;;;;;;;;;;4995289;28;93174;-77
2022/11/15 09:06:18;;;;;;;36.40;20.25;;;;;;;;;;4992639;28;92581;-77
2022/11/15 09:09:03;;;;;;;24.58;19.00;;;;;;;;;;4998015;28;92348;-78
2022/11/15 09:11:48;;;;;;;28.55;18.75;;;;;;;;;;4979852;28;92701;-77
2022/11/15 09:14:33;;;;;;;28.55;17.35;;;;;;;;;;4992303;28;92849;-77
2022/11/15 09:17:18;;;;;;;26.05;18.50;;;;;;;;;;4994172;28;92408;-77
2022/11/15 09:20:09;;;;;;;23.23;17.38;;;;;;;;;;4991234;28;93143;-77
2022/11/15 09:22:55;;;;;;;24.50;16.15;;;;;;;;;;4973820;28;92421;-78
2022/11/15 09:25:40;;;;;;;26.88;17.42;;;;;;;;;;4980244;28;95280;-77
2022/11/15 09:28:25;;;;;;;24.73;16.58;;;;;;;;;;4991993;28;93329;-76
2022/11/15 09:31:10;;;;;;;31.40;16.52;;;;;;;;;;4993141;28;92462;-77
2022/11/15 09:33:55;;;;;;;20.27;15.80;;;;;;;;;;4992468;28;92534;-77
2022/11/15 09:36:40;;;;;;;17.67;13.93;;;;;;;;;;4991781;28;92904;-77
2022/11/15 09:39:25;;;;;;;19.27;14.65;;;;;;;;;;4973655;28;92673;-77
2022/11/15 09:42:27;;;;;;;21.10;13.57;;;;;;;;;;4973163;28;93940;-77
2022/11/15 09:45:22;;;;;;;16.10;12.23;;;;;;;;;;4999134;28;91638;-77
2022/11/15 09:48:22;;;;;;;15.55;12.13;;;;;;;;;;4996090;28;92404;-77
2022/11/15 09:51:14;;;;;;;12.95;11.23;;;;;;;;;;4987989;28;92881;-77
2022/11/15 09:53:53;;;;;;;16.15;11.02;;;;;;;;;;4996613;28;95428;-77
2022/11/15 09:56:41;;;;;;;22.48;10.55;;;;;;;;;;4998295;28;95514;-77
2022/11/15 09:59:23;;;;;;;13.85;9.90;;;;;;;;;;4977109;28;93099;-77
2022/11/15 10:02:04;;;;;;;10.80;8.77;;;;;;;;;;4995085;28;93293;-77
2022/11/15 10:04:31;;;;;;;12.75;9.40;;;;;;;;;;4996864;28;94156;-77
2022/11/15 10:07:15;;;;;;;14.38;9.10;;;;;;;;;;4998191;28;92330;-77
2022/11/15 10:09:42;;;;;;;17.90;8.80;;;;;;;;;;4979817;28;93862;-77
2022/11/15 10:12:09;;;;;;;11.32;7.88;;;;;;;;;;4998935;28;93458;-78
2022/11/15 10:14:37;;;;;;;14.10;8.38;;;;;;;;;;4998472;28;92487;-77
2022/11/15 10:17:23;;;;;;;14.90;8.98;;;;;;;;;;4995587;28;92865;-76
2022/11/15 10:19:56;;;;;;;14.00;8.02;;;;;;;;;;5000121;28;96543;-77
2022/11/15 10:22:35;;;;;;;13.05;7.80;;;;;;;;;;4997720;28;96325;-77
2022/11/15 10:25:08;;;;;;;9.03;8.13;;;;;;;;;;4995891;28;94519;-79
2022/11/15 10:27:34;;;;;;;9.88;7.82;;;;;;;;;;4997750;28;92496;-78
2022/11/15 10:30:01;;;;;;;9.93;7.47;;;;;;;;;;4993974;28;93948;-81
2022/11/15 10:32:27;;;;;;;10.90;6.60;;;;;;;;;;4993774;28;94207;-80
2022/11/15 10:34:53;;;;;;;8.73;7.25;;;;;;;;;;4996470;28;92459;-79
2022/11/15 10:37:30;;;;;;;9.93;5.60;;;;;;;;;;4986716;28;93881;-78
2022/11/15 10:40:06;;;;;;;4.78;4.38;;;;;;;;;;4988702;28;93802;-79
2022/11/15 10:42:33;;;;;;;14.95;5.25;;;;;;;;;;5000360;28;92538;-79
2022/11/15 10:44:59;;;;;;;11.77;4.72;;;;;;;;;;4990544;28;97886;-80
2022/11/15 10:47:27;;;;;;;7.30;4.13;;;;;;;;;;4996351;28;93296;-79
2022/11/15 10:49:55;;;;;;;5.05;3.97;;;;;;;;;;4996882;28;93243;-79
2022/11/15 10:52:22;;;;;;;16.60;4.68;;;;;;;;;;4991473;28;95962;-79
2022/11/15 10:54:52;;;;;;;7.32;3.85;;;;;;;;;;4994426;28;96209;-79
2022/11/15 10:57:20;;;;;;;8.02;3.90;;;;;;;;;;4996150;28;93807;-81
2022/11/15 10:59:49;;;;;;;5.78;3.60;;;;;;;;;;4990608;28;94182;-80
2022/11/15 11:02:36;;;;;;;3.78;3.45;;;;;;;;;;4989948;28;93449;-81
2022/11/15 11:05:04;;;;;;;6.35;3.60;;;;;;;;;;4999064;28;94592;-81
2022/11/15 11:07:32;;;;;;;7.88;4.07;;;;;;;;;;4995217;28;92415;-80
2022/11/15 11:10:00;;;;;;;5.03;3.60;;;;;;;;;;4977841;28;94765;-80
2022/11/15 11:12:28;;;;;;;6.65;3.65;;;;;;;;;;4997075;28;94082;-81
2022/11/15 11:14:57;;;;;;;5.53;3.42;;;;;;;;;;4967957;28;93123;-81
2022/11/15 11:17:32;;;;;;;8.15;3.17;;;;;;;;;;4994013;28;92769;-80
2022/11/15 11:20:20;;;;;;;4.55;3.20;;;;;;;;;;4996613;28;93430;-80
2022/11/15 11:22:52;;;;;;;5.03;3.10;;;;;;;;;;4994569;28;92541;-80
2022/11/15 11:25:28;;;;;;;8.00;3.30;;;;;;;;;;4994957;28;94375;-79
2022/11/15 11:28:13;;;;;;;5.85;3.00;;;;;;;;;;4998610;28;93529;-80
2022/11/15 11:30:43;;;;;;;8.40;3.33;;;;;;;;;;4994269;28;93229;-83
2022/11/15 11:33:12;;;;;;;5.60;3.00;;;;;;;;;;4997059;28;94137;-82
2022/11/15 11:35:42;;;;;;;3.88;2.60;;;;;;;;;;4970441;28;95056;-81
2022/11/15 11:38:26;;;;;;;10.18;4.40;;;;;;;;;;4995854;28;96338;-81
2022/11/15 11:41:03;;;;;;;5.25;2.70;;;;;;;;;;4996055;28;94332;-80
2022/11/15 11:43:48;;;;;;;6.45;3.53;;;;;;;;;;5011780;28;92134;-80
2022/11/15 11:46:35;;;;;;;5.65;2.88;;;;;;;;;;5014502;28;92420;-80
2022/11/15 11:49:10;;;;;;;4.80;2.80;;;;;;;;;;5013356;28;93109;-81
2022/11/15 11:51:39;;;;;;;4.13;2.70;;;;;;;;;;5008129;28;94237;-80
2022/11/15 11:54:14;;;;;;;2.97;2.38;;;;;;;;;;5003763;28;92789;-81
2022/11/15 11:56:43;;;;;;;4.93;2.67;;;;;;;;;;4998357;28;92399;-81
2022/11/15 11:59:19;;;;;;;5.72;2.90;;;;;;;;;;4999470;28;93017;-80
2022/11/15 12:01:47;;;;;;;5.90;2.35;;;;;;;;;;4994788;28;95837;-81
2022/11/15 12:04:36;;;;;;;7.15;3.13;;;;;;;;;;4980509;28;92463;-81
2022/11/15 12:07:05;;;;;;;6.88;3.38;;;;;;;;;;4995258;28;92438;-81
2022/11/15 12:09:31;;;;;;;2.50;2.30;;;;;;;;;;4996703;28;94090;-81
2022/11/15 12:12:11;;;;;;;3.67;2.47;;;;;;;;;;4999897;28;92971;-81
2022/11/15 12:14:59;;;;;;;9.55;2.67;;;;;;;;;;4995907;28;94610;-81
2022/11/15 12:17:27;;;;;;;5.28;2.17;;;;;;;;;;4995828;28;92952;-81
2022/11/15 12:19:57;;;;;;;2.70;1.80;;;;;;;;;;4996518;28;93807;-81
2022/11/15 12:22:39;;;;;;;9.60;2.60;;;;;;;;;;4994780;28;95695;-80
2022/11/15 12:25:13;;;;;;;1.73;1.58;;;;;;;;;;4995309;28;92458;-80
2022/11/15 12:27:48;;;;;;;5.65;2.00;;;;;;;;;;4992054;28;94773;-81
2022/11/15 12:30:17;;;;;;;5.57;1.92;;;;;;;;;;4975518;28;93385;-81
2022/11/15 12:32:53;;;;;;;6.60;1.88;;;;;;;;;;4976365;28;92350;-81
2022/11/15 12:35:25;;;;;;;5.80;1.80;;;;;;;;;;4979171;28;93939;-81
2022/11/15 12:37:55;;;;;;;12.90;1.60;;;;;;;;;;4974709;28;92445;-81
2022/11/15 12:40:23;;;;;;;4.88;1.60;;;;;;;;;;4976551;28;94014;-81
2022/11/15 12:43:03;;;;;;;2.35;1.40;;;;;;;;;;4976379;28;93108;-81
2022/11/15 12:45:37;;;;;;;4.32;1.80;;;;;;;;;;4976178;28;91721;-81
2022/11/15 12:48:15;;;;;;;12.70;2.00;;;;;;;;;;4976023;28;92581;-81
2022/11/15 12:50:50;;;;;;;4.53;1.40;;;;;;;;;;4982471;28;93112;-81
2022/11/15 12:53:22;;;;;;;4.90;1.52;;;;;;;;;;4993977;28;94863;-81
2022/11/15 12:55:49;;;;;;;;;;;;;;;;;;4996817;28;95999;-81
2022/11/15 12:58:38;;;;;;;7.18;1.50;;;;;;;;;;4999077;28;124767;-82
2022/11/15 13:01:08;;;;;;;5.78;1.55;;;;;;;;;;4995493;28;93841;-81
2022/11/15 13:03:34;;;;;;;7.50;1.60;;;;;;;;;;4995814;28;94105;-81
2022/11/15 13:06:03;;;;;;;6.88;1.92;;;;;;;;;;4995192;28;92431;-81
2022/11/15 13:08:51;;;;;;;8.52;1.70;;;;;;;;;;4995209;28;94008;-81
2022/11/15 13:11:38;;;;;;;5.22;1.60;;;;;;;;;;4996220;28;93569;-81
2022/11/15 13:14:24;;;;;;;5.50;1.40;;;;;;;;;;4995304;28;92538;-81
2022/11/15 13:16:57;;;;;;;2.22;1.70;;;;;;;;;;4994711;28;93241;-81
2022/11/15 13:19:26;;;;;;;2.00;1.60;;;;;;;;;;4996712;28;96527;-81
2022/11/15 13:24:40;;;;;;;8.90;2.53;;;;;;;;;;4997782;28;93451;-81
2022/11/15 13:27:25;;;;;;;7.88;2.13;;;;;;;;;;4998431;28;92376;-82
2022/11/15 13:29:52;;;;;;;3.90;2.03;;;;;;;;;;4998682;28;93558;-81
2022/11/15 13:32:23;;;;;;;4.15;1.70;;;;;;;;;;4998393;28;93437;-82
2022/11/15 13:34:52;;;;;;;3.47;2.30;;;;;;;;;;4997984;28;92444;-81
2022/11/15 13:37:24;;;;;;;3.83;1.95;;;;;;;;;;4999018;28;93883;-80
2022/11/15 13:39:51;;;;;;;5.57;2.60;;;;;;;;;;4997732;28;93409;-83
2022/11/15 13:42:20;;;;;;;4.05;1.90;;;;;;;;;;4997665;28;92566;-82
2022/11/15 13:45:12;;;;;;;5.05;2.15;;;;;;;;;;5001426;28;94946;-82
2022/11/15 13:47:39;;;;;;;6.60;2.63;;;;;;;;;;4996138;28;92397;-79
2022/11/15 13:50:07;;;;;;;4.18;2.10;;;;;;;;;;5000384;28;93021;-83
2022/11/15 13:52:40;;;;;;;9.52;2.28;;;;;;;;;;4998885;28;94345;-80
2022/11/15 13:55:20;;;;;;;3.58;1.88;;;;;;;;;;4998972;28;92430;-82
2022/11/15 13:58:07;;;;;;;7.75;2.53;;;;;;;;;;4998864;28;94105;-83
2022/11/15 14:00:43;;;;;;;10.20;2.50;;;;;;;;;;4997873;28;93962;-85
2022/11/15 14:03:19;;;;;;;5.75;2.20;;;;;;;;;;4998730;28;91565;-82
2022/11/15 14:06:02;;;;;;;6.88;2.22;;;;;;;;;;5000885;28;93940;-83
2022/11/15 14:08:28;;;;;;;3.10;1.83;;;;;;;;;;4997594;28;92605;-82
2022/11/15 14:11:08;;;;;;;5.65;2.17;;;;;;;;;;4979019;28;94801;-82
2022/11/15 14:13:35;;;;;;;5.18;2.33;;;;;;;;;;4997306;28;93702;-83
2022/11/15 14:16:14;;;;;;;4.85;1.85;;;;;;;;;;4996555;28;92825;-83
2022/11/15 14:18:47;;;;;;;3.30;2.10;;;;;;;;;;4998436;28;93895;-83
2022/11/15 14:21:14;;;;;;;6.82;1.83;;;;;;;;;;4997262;28;94287;-81
2022/11/15 14:23:41;;;;;;;5.03;1.80;;;;;;;;;;4997307;28;92469;-82
2022/11/15 14:26:26;;;;;;;6.45;2.10;;;;;;;;;;4976550;28;98466;-81
2022/11/15 14:28:52;;;;;;;5.05;2.17;;;;;;;;;;4995932;28;99603;-82
2022/11/15 14:31:19;;;;;;;3.08;1.60;;;;;;;;;;4992816;28;98536;-80
2022/11/15 14:33:45;;;;;;;2.75;2.10;;;;;;;;;;4990912;28;100256;-82
2022/11/15 14:36:13;;;;;;;4.50;1.95;;;;;;;;;;4992077;28;99280;-82
2022/11/15 14:38:40;;;;;;;2.03;1.80;;;;;;;;;;4988988;28;99895;-84
2022/11/15 14:41:16;;;;;;;5.18;1.95;;;;;;;;;;4993497;28;100466;-83
2022/11/15 14:43:44;;;;;;;3.65;1.60;;;;;;;;;;4993267;28;98460;-81
2022/11/15 14:46:12;;;;;;;9.32;2.70;;;;;;;;;;4994343;28;99966;-82
2022/11/15 14:48:39;;;;;;;4.53;1.77;;;;;;;;;;4990868;28;100264;-83
2022/11/15 14:51:12;;;;;;;3.05;1.40;;;;;;;;;;4995258;28;99018;-83
2022/11/15 14:53:39;;;;;;;5.35;1.50;;;;;;;;;;4992525;28;99581;-81
2022/11/15 14:56:05;;;;;;;4.22;1.80;;;;;;;;;;4988610;28;99118;-82
2022/11/15 14:58:31;;;;;;;5.25;1.73;;;;;;;;;;4987389;28;99948;-82
2022/11/15 15:00:58;;;;;;;4.32;1.70;;;;;;;;;;4984491;28;100858;-81
2022/11/15 15:03:26;;;;;;;6.13;1.58;;;;;;;;;;4990782;28;99025;-83
2022/11/15 15:05:54;;;;;;;7.13;1.45;;;;;;;;;;4984146;28;98912;-83
2022/11/15 15:08:21;;;;;;;4.47;1.73;;;;;;;;;;4981904;28;100255;-83
2022/11/15 15:10:47;;;;;;;6.20;1.88;;;;;;;;;;4992339;28;98559;-83
2022/11/15 15:13:16;;;;;;;3.05;1.67;;;;;;;;;;4981231;28;99013;-83
2022/11/15 15:15:43;;;;;;;4.47;1.52;;;;;;;;;;4993059;28;99213;-83
2022/11/15 15:18:11;;;;;;;2.83;1.70;;;;;;;;;;4993630;28;99182;-83
2022/11/15 15:20:39;;;;;;;10.15;1.65;;;;;;;;;;4989626;28;100492;-82
2022/11/15 15:23:15;;;;;;;3.28;1.58;;;;;;;;;;4984043;28;98652;-83
2022/11/15 15:25:43;;;;;;;5.68;1.52;;;;;;;;;;4987113;28;99873;-82
2022/11/15 15:28:11;;;;;;;6.28;1.58;;;;;;;;;;4985163;28;100121;-79
2022/11/15 15:30:38;;;;;;;4.95;1.50;;;;;;;;;;4989578;28;99277;-80
2022/11/15 15:33:06;;;;;;;2.60;1.45;;;;;;;;;;4989994;28;98662;-78
2022/11/15 15:35:33;;;;;;;2.90;1.60;;;;;;;;;;4996280;28;99335;-84
2022/11/15 15:37:59;;;;;;;3.42;1.75;;;;;;;;;;4994597;28;99844;-87
2022/11/15 15:40:27;;;;;;;3.95;2.15;;;;;;;;;;4989846;28;98563;-80
2022/11/15 15:42:54;;;;;;;3.17;2.10;;;;;;;;;;4992010;28;97867;-79
2022/11/15 15:45:24;;;;;;;6.25;1.90;;;;;;;;;;4991497;28;98611;-79
2022/11/15 15:47:51;;;;;;;6.05;3.22;;;;;;;;;;4990078;28;100143;-80
2022/11/15 15:50:21;;;;;;;4.88;2.10;;;;;;;;;;4990856;28;99403;-80
2022/11/15 15:52:48;;;;;;;6.88;1.90;;;;;;;;;;4992990;28;100765;-79
2022/11/15 15:55:16;;;;;;;2.53;1.60;;;;;;;;;;4991484;28;100243;-79
2022/11/15 15:57:42;;;;;;;4.07;2.10;;;;;;;;;;4993812;28;98678;-82
2022/11/15 16:00:10;;;;;;;2.13;1.65;;;;;;;;;;4991627;28;100240;-81